sensor_id;sensor_type;location;lat;lon;timestamp;pressure;altitude;pressure_sealevel;temperature;humidity
43691;BME280;29293;52.190;21.226;2023-02-12T00:11:55;101613.66;;;0.62;100.00
43691;BME280;29293;52.190;21.226;2023-02-12T00:27:05;101644.75;;;0.47;100.00
43691;BME280;29293;52.190;21.226;2023-02-12T00:42:13;101665.17;;;0.41;100.00
43691;BME280;29293;52.190;21.226;2023-02-12T00:57:23;101681.81;;;0.33;100.00
43691;BME280;29293;52.190;21.226;2023-02-12T01:12:34;101701.23;;;0.22;100.00
43691;BME280;29293;52.190;21.226;2023-02-12T01:27:43;101728.00;;;0.17;100.00
43691;BME280;29293;52.190;21.226;2023-02-12T01:42:52;101741.55;;;0.17;100.00
43691;BME280;29293;52.190;21.226;2023-02-12T01:58:01;101754.80;;;0.12;100.00
43691;BME280;29293;52.190;21.226;2023-02-12T02:13:15;101764.79;;;0.11;100.00
43691;BME280;29293;52.190;21.226;2023-02-12T02:29:07;101807.02;;;0.10;100.00
43691;BME280;29293;52.190;21.226;2023-02-12T02:44:25;101841.66;;;0.01;100.00
43691;BME280;29293;52.190;21.226;2023-02-12T02:59:41;101868.84;;;-0.10;100.00
43691;BME280;29293;52.190;21.226;2023-02-12T03:14:56;101904.57;;;-0.13;100.00
43691;BME280;29293;52.190;21.226;2023-02-12T03:30:10;101956.69;;;-0.16;100.00
43691;BME280;29293;52.190;21.226;2023-02-12T03:45:34;101984.33;;;-0.18;100.00
43691;BME280;29293;52.190;21.226;2023-02-12T04:00:46;102015.75;;;-0.29;100.00
43691;BME280;29293;52.190;21.226;2023-02-12T04:16:13;102026.63;;;-0.29;100.00
43691;BME280;29293;52.190;21.226;2023-02-12T04:31:32;102033.02;;;-0.29;100.00
43691;BME280;29293;52.190;21.226;2023-02-12T04:46:46;102047.44;;;-0.33;100.00
43691;BME280;29293;52.190;21.226;2023-02-12T05:01:58;102063.44;;;-0.37;100.00
43691;BME280;29293;52.190;21.226;2023-02-12T05:17:09;102088.34;;;-0.37;100.00
43691;BME280;29293;52.190;21.226;2023-02-12T05:32:20;102121.38;;;-0.44;100.00
43691;BME280;29293;52.190;21.226;2023-02-12T05:47:29;102150.80;;;-0.46;100.00
43691;BME280;29293;52.190;21.226;2023-02-12T06:02:39;102181.84;;;-0.49;100.00
43691;BME280;29293;52.190;21.226;2023-02-12T06:17:49;102202.20;;;-0.56;100.00
43691;BME280;29293;52.190;21.226;2023-02-12T06:33:00;102230.20;;;-0.62;100.00
43691;BME280;29293;52.190;21.226;2023-02-12T06:48:12;102251.55;;;-0.58;100.00
43691;BME280;29293;52.190;21.226;2023-02-12T07:03:22;102256.13;;;-0.61;100.00
43691;BME280;29293;52.190;21.226;2023-02-12T07:18:40;102268.06;;;-0.71;100.00
43691;BME280;29293;52.190;21.226;2023-02-12T07:33:55;102278.66;;;-0.74;100.00
43691;BME280;29293;52.190;21.226;2023-02-12T07:49:10;102287.14;;;-0.49;100.00
43691;BME280;29293;52.190;21.226;2023-02-12T08:04:22;102291.20;;;-0.12;100.00
43691;BME280;29293;52.190;21.226;2023-02-12T08:19:34;102301.35;;;0.19;100.00
43691;BME280;29293;52.190;21.226;2023-02-12T08:34:44;102317.06;;;0.44;100.00
43691;BME280;29293;52.190;21.226;2023-02-12T08:49:56;102316.11;;;0.58;100.00
43691;BME280;29293;52.190;21.226;2023-02-12T09:05:06;102320.08;;;0.82;100.00
43691;BME280;29293;52.190;21.226;2023-02-12T09:20:22;102317.75;;;0.99;100.00
43691;BME280;29293;52.190;21.226;2023-02-12T09:35:34;102331.15;;;1.22;100.00
43691;BME280;29293;52.190;21.226;2023-02-12T09:50:50;102346.33;;;1.46;100.00
43691;BME280;29293;52.190;21.226;2023-02-12T10:06:12;102364.95;;;1.76;100.00
43691;BME280;29293;52.190;21.226;2023-02-12T10:21:32;102360.60;;;2.11;100.00
43691;BME280;29293;52.190;21.226;2023-02-12T10:36:53;102343.98;;;2.37;100.00
43691;BME280;29293;52.190;21.226;2023-02-12T10:52:14;102358.40;;;2.63;100.00
43691;BME280;29293;52.190;21.226;2023-02-12T11:07:28;102341.14;;;2.80;100.00
43691;BME280;29293;52.190;21.226;2023-02-12T11:22:57;102346.41;;;2.95;100.00
43691;BME280;29293;52.190;21.226;2023-02-12T11:38:22;102347.44;;;3.41;100.00
43691;BME280;29293;52.190;21.226;2023-02-12T11:53:34;102334.86;;;3.54;100.00
43691;BME280;29293;52.190;21.226;2023-02-12T12:08:50;102329.69;;;3.74;100.00
43691;BME280;29293;52.190;21.226;2023-02-12T12:24:07;102321.17;;;4.04;100.00
43691;BME280;29293;52.190;21.226;2023-02-12T12:39:35;102309.16;;;4.17;100.00
43691;BME280;29293;52.190;21.226;2023-02-12T13:10:47;102291.77;;;4.30;100.00
43691;BME280;29293;52.190;21.226;2023-02-12T13:26:03;102284.02;;;4.25;100.00
43691;BME280;29293;52.190;21.226;2023-02-12T13:41:18;102284.94;;;3.86;100.00
43691;BME280;29293;52.190;21.226;2023-02-12T13:56:41;102292.39;;;3.49;100.00
43691;BME280;29293;52.190;21.226;2023-02-12T14:11:54;102291.67;;;3.26;100.00
43691;BME280;29293;52.190;21.226;2023-02-12T14:27:15;102295.73;;;2.83;100.00
43691;BME280;29293;52.190;21.226;2023-02-12T14:42:55;102290.86;;;2.46;100.00
43691;BME280;29293;52.190;21.226;2023-02-12T14:58:13;102290.39;;;2.04;100.00
43691;BME280;29293;52.190;21.226;2023-02-12T15:13:28;102298.52;;;1.69;100.00
43691;BME280;29293;52.190;21.226;2023-02-12T15:28:41;102302.89;;;1.28;100.00
43691;BME280;29293;52.190;21.226;2023-02-12T15:43:53;102309.58;;;0.90;100.00
43691;BME280;29293;52.190;21.226;2023-02-12T15:59:14;102325.45;;;0.48;100.00
43691;BME280;29293;52.190;21.226;2023-02-12T16:14:32;102334.80;;;0.11;100.00
43691;BME280;29293;52.190;21.226;2023-02-12T16:29:50;102335.08;;;-0.23;100.00
43691;BME280;29293;52.190;21.226;2023-02-12T16:45:01;102317.52;;;-0.58;100.00
43691;BME280;29293;52.190;21.226;2023-02-12T17:00:30;102298.42;;;-0.85;100.00
43691;BME280;29293;52.190;21.226;2023-02-12T17:15:48;102294.05;;;-1.11;100.00
43691;BME280;29293;52.190;21.226;2023-02-12T17:30:59;102296.16;;;-1.21;100.00
43691;BME280;29293;52.190;21.226;2023-02-12T17:46:16;102321.78;;;-1.27;100.00
43691;BME280;29293;52.190;21.226;2023-02-12T18:01:27;102330.42;;;-1.46;100.00
43691;BME280;29293;52.190;21.226;2023-02-12T18:16:37;102324.92;;;-1.57;100.00
43691;BME280;29293;52.190;21.226;2023-02-12T18:31:47;102305.54;;;-1.50;100.00
43691;BME280;29293;52.190;21.226;2023-02-12T18:46:57;102298.78;;;-1.19;100.00
43691;BME280;29293;52.190;21.226;2023-02-12T19:02:09;102291.54;;;-0.72;100.00
43691;BME280;29293;52.190;21.226;2023-02-12T19:17:20;102291.23;;;-0.26;100.00
43691;BME280;29293;52.190;21.226;2023-02-12T19:32:31;102284.81;;;0.10;100.00
43691;BME280;29293;52.190;21.226;2023-02-12T19:47:41;102271.80;;;0.36;100.00
43691;BME280;29293;52.190;21.226;2023-02-12T20:02:52;102252.60;;;0.56;100.00
43691;BME280;29293;52.190;21.226;2023-02-12T20:18:03;102241.32;;;0.70;100.00
43691;BME280;29293;52.190;21.226;2023-02-12T20:33:16;102245.67;;;0.76;100.00
43691;BME280;29293;52.190;21.226;2023-02-12T20:48:25;102225.03;;;0.83;100.00
43691;BME280;29293;52.190;21.226;2023-02-12T21:03:37;102204.42;;;0.86;100.00
43691;BME280;29293;52.190;21.226;2023-02-12T21:18:47;102193.42;;;0.84;100.00
43691;BME280;29293;52.190;21.226;2023-02-12T21:33:59;102194.23;;;0.87;100.00
43691;BME280;29293;52.190;21.226;2023-02-12T21:49:10;102177.80;;;0.87;100.00
43691;BME280;29293;52.190;21.226;2023-02-12T22:04:21;102167.80;;;0.88;100.00
43691;BME280;29293;52.190;21.226;2023-02-12T22:19:32;102161.59;;;0.95;100.00
43691;BME280;29293;52.190;21.226;2023-02-12T22:34:46;102153.73;;;1.03;100.00
43691;BME280;29293;52.190;21.226;2023-02-12T22:49:59;102143.24;;;1.25;100.00
43691;BME280;29293;52.190;21.226;2023-02-12T23:05:12;102111.70;;;1.71;100.00
43691;BME280;29293;52.190;21.226;2023-02-12T23:20:24;102101.28;;;2.04;100.00
43691;BME280;29293;52.190;21.226;2023-02-12T23:35:36;102078.95;;;2.28;100.00
43691;BME280;29293;52.190;21.226;2023-02-12T23:50:49;102064.18;;;2.41;100.00
